Time;durP1;ratioP1;P1;durP2;ratioP2;P2;SDS_P1;SDS_P2;PMS_P1;PMS_P2;Temp;Humidity;BMP_temperature;BMP_pressure;BME280_temperature;BME280_humidity;BME280_pressure;Samples;Min_cycle;Max_cycle;Signal;HPM_P1;HPM_P2
2021/01/19 00:00:32;;;;;;;224.10;85.50;;;;;;;-7.54;65.74;99030.95;2208493;81;21241;-80
2021/01/19 00:03:35;;;;;;;254.33;94.90;;;;;;;-7.54;65.57;99028.80;2210199;80;21174;-77
2021/01/19 00:06:37;;;;;;;265.20;102.37;;;;;;;-7.51;65.86;99023.98;2209345;81;21149;-79
2021/01/19 00:09:38;;;;;;;285.67;107.97;;;;;;;-7.43;65.72;99022.59;2209412;81;21134;-79
2021/01/19 00:12:39;;;;;;;244.87;94.50;;;;;;;-7.39;65.77;99024.63;2208505;81;21413;-80
2021/01/19 00:15:40;;;;;;;240.60;91.03;;;;;;;-7.31;65.65;99021.84;2209662;81;21122;-79
2021/01/19 00:18:42;;;;;;;242.27;94.07;;;;;;;-7.25;65.82;99016.91;2209756;81;21150;-79
2021/01/19 00:21:43;;;;;;;260.23;96.53;;;;;;;-7.28;65.58;99012.84;2206536;81;21524;-79
2021/01/19 00:24:46;;;;;;;252.27;101.37;;;;;;;-7.35;65.67;99015.63;2209284;81;21280;-78
2021/01/19 00:27:48;;;;;;;251.07;94.37;;;;;;;-7.29;65.97;99013.98;2208450;81;21117;-77
2021/01/19 00:30:49;;;;;;;237.03;91.00;;;;;;;-7.22;66.00;99015.00;2208858;81;21884;-78
2021/01/19 00:33:50;;;;;;;234.63;90.60;;;;;;;-7.24;65.83;99011.07;2208475;81;21550;-79
2021/01/19 00:36:51;;;;;;;214.47;83.60;;;;;;;-7.23;65.95;99006.89;2209094;81;21268;-77
2021/01/19 00:39:52;;;;;;;248.80;92.97;;;;;;;-7.23;66.05;99001.81;2209849;80;21268;-79
2021/01/19 00:42:53;;;;;;;235.63;89.17;;;;;;;-7.27;66.09;99000.67;2209493;81;21114;-79
2021/01/19 00:45:54;;;;;;;258.17;100.03;;;;;;;-7.24;66.31;98997.13;2210031;81;21280;-79
2021/01/19 00:48:56;;;;;;;234.67;86.63;;;;;;;-7.17;66.48;98995.59;2209710;81;21532;-80
2021/01/19 00:51:57;;;;;;;225.80;84.33;;;;;;;-7.12;66.19;98984.56;2209592;81;21256;-79
2021/01/19 00:54:58;;;;;;;241.63;93.53;;;;;;;-7.13;66.24;98978.59;2209945;80;21608;-78
2021/01/19 00:57:59;;;;;;;254.73;93.87;;;;;;;-7.12;66.48;98976.95;2209555;80;21261;-78
2021/01/19 01:01:01;;;;;;;232.60;92.90;;;;;;;-7.09;66.63;98976.81;2209396;81;21157;-80
2021/01/19 01:04:02;;;;;;;221.27;87.53;;;;;;;-7.06;66.68;98974.53;2209550;81;21284;-79
2021/01/19 01:07:03;;;;;;;222.13;89.20;;;;;;;-7.02;66.68;98971.86;2209865;81;21276;-79
2021/01/19 01:10:04;;;;;;;234.10;90.20;;;;;;;-7.00;66.67;98974.52;2209316;81;21528;-79
2021/01/19 01:13:05;;;;;;;225.13;87.53;;;;;;;-7.00;66.81;98974.52;2208161;81;21248;-79
2021/01/19 01:16:07;;;;;;;204.73;82.17;;;;;;;-6.95;66.95;98970.33;2209958;80;21527;-78
2021/01/19 01:19:08;;;;;;;215.20;82.00;;;;;;;-6.89;67.90;98960.70;2209752;81;21504;-77
2021/01/19 01:22:09;;;;;;;220.20;85.67;;;;;;;-6.82;67.04;98955.74;2208640;81;21245;-78
2021/01/19 01:25:10;;;;;;;248.57;95.97;;;;;;;-6.83;67.03;98956.51;2208399;81;21292;-77
2021/01/19 01:28:11;;;;;;;222.37;86.40;;;;;;;-6.83;67.05;98947.63;2208680;81;21264;-78
2021/01/19 01:31:12;;;;;;;227.93;90.10;;;;;;;-6.79;67.30;98940.38;2208473;81;21269;-77
2021/01/19 01:34:13;;;;;;;235.07;92.37;;;;;;;-6.74;67.19;98943.28;2207799;81;21276;-76
2021/01/19 01:37:14;;;;;;;207.17;81.70;;;;;;;-6.64;67.43;98938.17;2209677;81;21290;-77
2021/01/19 01:40:16;;;;;;;234.30;93.43;;;;;;;-6.53;67.21;98942.83;2209107;81;21260;-78
2021/01/19 01:43:17;;;;;;;214.07;82.83;;;;;;;-6.51;67.12;98935.84;2209779;81;21138;-77
2021/01/19 01:46:18;;;;;;;206.43;82.80;;;;;;;-6.46;67.03;98936.20;2209466;81;21571;-77
2021/01/19 01:49:20;;;;;;;226.73;92.70;;;;;;;-6.47;67.14;98928.08;2208321;80;21174;-77
2021/01/19 01:52:21;;;;;;;232.13;93.37;;;;;;;-6.42;67.16;98921.33;2209155;81;21248;-76
2021/01/19 01:55:22;;;;;;;213.20;84.50;;;;;;;-6.41;67.01;98918.41;2209551;81;21150;-78
2021/01/19 01:58:23;;;;;;;199.40;78.80;;;;;;;-6.43;66.98;98914.47;2209623;81;21103;-78
2021/01/19 02:01:24;;;;;;;201.87;80.90;;;;;;;-6.49;67.04;98915.64;2209620;80;21122;-79
2021/01/19 02:04:27;;;;;;;209.77;81.20;;;;;;;-6.56;67.16;98909.20;2209743;81;21285;-78
2021/01/19 02:07:28;;;;;;;203.10;83.63;;;;;;;-6.58;67.33;98910.73;2209630;81;21273;-78
2021/01/19 02:10:29;;;;;;;203.83;79.73;;;;;;;-6.57;67.54;98909.97;2209576;81;21284;-76
2021/01/19 02:13:30;;;;;;;203.23;78.90;;;;;;;-6.50;67.69;98907.52;2208257;81;21245;-77
2021/01/19 02:16:32;;;;;;;211.00;84.93;;;;;;;-6.44;67.74;98898.73;2208958;81;21265;-76
2021/01/19 02:19:33;;;;;;;227.40;92.63;;;;;;;-6.34;67.75;98900.72;2208813;81;21512;-77
2021/01/19 02:22:34;;;;;;;237.67;98.17;;;;;;;-6.26;67.76;98894.19;2208978;81;21260;-77
2021/01/19 02:25:35;;;;;;;213.50;87.37;;;;;;;-6.18;67.63;98887.16;2208610;81;21138;-77
2021/01/19 02:28:36;;;;;;;243.23;97.33;;;;;;;-6.15;67.53;98881.05;2208605;81;21118;-77
2021/01/19 02:31:39;;;;;;;220.33;93.97;;;;;;;-6.11;67.58;98883.94;2209450;81;21269;-78
2021/01/19 02:34:41;;;;;;;208.23;82.60;;;;;;;-6.05;67.54;98880.13;2208123;81;21162;-76
2021/01/19 02:37:43;;;;;;;224.30;89.50;;;;;;;-6.11;67.38;98874.16;2203179;81;21693;-77
2021/01/19 02:40:44;;;;;;;218.00;87.70;;;;;;;-6.16;67.56;98865.30;2202040;81;21103;-77
2021/01/19 02:43:45;;;;;;;184.27;76.60;;;;;;;-6.12;67.76;98862.22;2202172;81;21158;-77
2021/01/19 02:46:46;;;;;;;221.53;90.80;;;;;;;-6.08;67.81;98856.98;2202543;81;21126;-76
2021/01/19 02:49:47;;;;;;;230.30;92.50;;;;;;;-6.06;67.89;98855.10;2203297;81;21131;-76
2021/01/19 02:52:48;;;;;;;200.20;85.33;;;;;;;-5.98;67.93;98856.56;2201914;81;21401;-77
2021/01/19 02:55:49;;;;;;;224.27;90.17;;;;;;;-6.03;67.78;98851.52;2202425;81;21138;-77
2021/01/19 02:58:50;;;;;;;212.97;84.50;;;;;;;-6.08;67.83;98855.34;2202998;81;21122;-77
2021/01/19 03:01:51;;;;;;;217.50;88.07;;;;;;;-6.06;67.84;98851.67;2202941;81;21139;-77
2021/01/19 03:04:52;;;;;;;220.33;90.33;;;;;;;-6.05;67.95;98845.82;2203240;81;21134;-78
2021/01/19 03:07:53;;;;;;;220.30;93.17;;;;;;;-6.06;67.87;98855.48;2202996;81;21142;-78
2021/01/19 03:10:56;;;;;;;212.20;87.80;;;;;;;-6.07;68.06;98844.78;2203204;81;21542;-76
2021/01/19 03:13:57;;;;;;;216.77;91.67;;;;;;;-6.03;68.34;98840.08;2202968;81;21142;-78
2021/01/19 03:16:59;;;;;;;218.93;90.83;;;;;;;-5.97;68.29;98839.66;2202761;81;21154;-78
2021/01/19 03:20:00;;;;;;;202.90;83.03;;;;;;;-5.95;68.14;98833.03;2203703;80;21177;-77
2021/01/19 03:23:01;;;;;;;236.43;95.53;;;;;;;-5.96;68.12;98833.81;2203327;80;21170;-77
2021/01/19 03:26:02;;;;;;;226.67;93.10;;;;;;;-5.96;68.14;98838.51;2203052;81;21444;-77
2021/01/19 03:29:06;;;;;;;232.63;94.93;;;;;;;-5.92;68.13;98834.54;2202729;81;21142;-77
2021/01/19 03:32:07;;;;;;;210.23;82.87;;;;;;;-5.92;68.14;98827.80;2203168;81;21104;-78
2021/01/19 03:35:08;;;;;;;224.07;90.77;;;;;;;-5.87;68.10;98825.19;2204922;81;21173;-78
2021/01/19 03:38:15;;;;;;;235.13;92.33;;;;;;;-5.89;67.94;98819.09;2209567;80;21130;-76
2021/01/19 03:41:16;;;;;;;233.03;95.87;;;;;;;-5.87;68.05;98816.28;2209406;81;21464;-77
2021/01/19 03:44:18;;;;;;;239.80;96.00;;;;;;;-5.85;68.04;98805.84;2209544;81;21280;-78
2021/01/19 03:47:19;;;;;;;226.63;91.70;;;;;;;-5.85;68.02;98805.84;2209391;81;21268;-77
2021/01/19 03:50:20;;;;;;;236.53;93.27;;;;;;;-5.80;68.19;98804.53;2208828;81;21248;-78
2021/01/19 03:53:21;;;;;;;232.10;96.20;;;;;;;-5.75;68.19;98798.52;2209866;80;21523;-78
2021/01/19 03:56:22;;;;;;;236.40;98.37;;;;;;;-5.70;68.20;98807.37;2209682;81;21329;-78
2021/01/19 03:59:23;;;;;;;228.20;97.67;;;;;;;-5.66;68.22;98805.55;2209768;81;21451;-76
2021/01/19 04:02:24;;;;;;;235.77;98.00;;;;;;;-5.62;68.14;98809.20;2209264;81;21118;-78
2021/01/19 04:05:25;;;;;;;249.73;104.73;;;;;;;-5.59;68.15;98808.16;2209388;81;21401;-78
2021/01/19 04:08:26;;;;;;;227.90;94.50;;;;;;;-5.60;67.95;98811.47;2209515;81;21256;-78
2021/01/19 04:11:27;;;;;;;228.17;98.63;;;;;;;-5.61;68.05;98808.44;2209011;81;21236;-77
2021/01/19 04:14:28;;;;;;;226.97;100.13;;;;;;;-5.61;68.12;98805.89;2208741;81;21534;-77
2021/01/19 04:17:29;;;;;;;240.07;98.10;;;;;;;-5.63;68.19;98809.59;2209352;81;21241;-77
2021/01/19 04:20:31;;;;;;;213.40;89.23;;;;;;;-5.60;68.16;98805.11;2209789;81;21278;-78
2021/01/19 04:23:32;;;;;;;224.93;92.47;;;;;;;-5.63;68.16;98795.98;2209995;81;21312;-78
2021/01/19 04:26:33;;;;;;;229.50;93.53;;;;;;;-5.69;68.28;98798.97;2209706;81;21277;-78
2021/01/19 04:29:34;;;;;;;215.20;89.20;;;;;;;-5.62;68.45;98795.22;2209207;81;21571;-77
2021/01/19 04:32:35;;;;;;;232.20;97.17;;;;;;;-5.60;68.26;98796.21;2208779;81;21103;-77
2021/01/19 04:35:36;;;;;;;223.10;97.07;;;;;;;-5.60;68.29;98796.21;2203821;80;21186;-78
2021/01/19 04:38:37;;;;;;;225.03;97.03;;;;;;;-5.56;68.28;98796.94;2192528;81;21111;-80
2021/01/19 04:41:38;;;;;;;226.43;94.23;;;;;;;-5.59;68.31;98792.52;2191365;81;21150;-77
2021/01/19 04:44:39;;;;;;;218.03;91.80;;;;;;;-5.56;68.50;98793.12;2191416;81;21555;-78
2021/01/19 04:47:40;;;;;;;220.40;91.03;;;;;;;-5.49;68.41;98788.59;2191180;81;21149;-77
2021/01/19 04:50:42;;;;;;;223.77;91.37;;;;;;;-5.48;68.42;98790.36;2189894;81;21437;-77
2021/01/19 04:53:43;;;;;;;237.30;96.83;;;;;;;-5.45;68.47;98780.80;2190073;81;21118;-80
2021/01/19 04:56:44;;;;;;;238.97;101.47;;;;;;;-5.50;68.41;98785.55;2189929;81;21370;-79
2021/01/19 04:59:45;;;;;;;234.07;96.57;;;;;;;-5.46;68.66;98786.27;2190530;81;21142;-78
2021/01/19 05:02:46;;;;;;;219.67;93.97;;;;;;;-5.36;68.71;98784.39;2190564;81;21127;-79
2021/01/19 05:05:47;;;;;;;223.80;99.87;;;;;;;-5.34;68.63;98782.45;2190805;81;21285;-80
2021/01/19 05:08:48;;;;;;;222.23;95.80;;;;;;;-5.26;68.81;98783.01;2190842;81;21265;-80
2021/01/19 05:11:49;;;;;;;219.40;97.70;;;;;;;-5.20;68.85;98783.48;2190585;81;21472;-78
2021/01/19 05:14:50;;;;;;;201.03;89.70;;;;;;;-5.19;68.77;98782.70;2190904;81;21285;-79
2021/01/19 05:17:54;;;;;;;228.87;96.47;;;;;;;-5.16;68.59;98776.17;2190636;81;21147;-79
2021/01/19 05:20:55;;;;;;;239.70;102.77;;;;;;;-5.15;68.71;98775.79;2190974;81;21701;-79
2021/01/19 05:23:56;;;;;;;237.13;100.53;;;;;;;-5.08;68.58;98783.47;2191399;81;21158;-78
2021/01/19 05:26:57;;;;;;;248.60;100.07;;;;;;;-5.08;68.53;98778.38;2190598;81;21308;-81
2021/01/19 05:29:58;;;;;;;237.03;101.20;;;;;;;-5.08;68.50;98780.54;2189005;81;21143;-78
2021/01/19 05:32:59;;;;;;;231.13;97.67;;;;;;;-5.05;68.52;98777.33;2190145;81;21143;-78
2021/01/19 05:36:00;;;;;;;239.50;101.63;;;;;;;-5.02;69.97;98775.88;2190080;80;21287;-78
2021/01/19 05:39:01;;;;;;;229.53;100.97;;;;;;;-4.92;68.73;98779.97;2190353;81;21146;-79
2021/01/19 05:42:04;;;;;;;244.00;109.90;;;;;;;-4.92;68.43;98778.69;2190867;81;21126;-79
2021/01/19 05:45:05;;;;;;;222.33;99.00;;;;;;;-4.93;68.30;98776.92;2191086;81;21281;-79
2021/01/19 05:48:06;;;;;;;193.00;81.50;;;;;;;-4.92;68.53;98779.97;2191647;81;21126;-78
2021/01/19 05:51:07;;;;;;;211.30;93.20;;;;;;;-4.89;68.41;98773.81;2190854;81;21142;-78
2021/01/19 05:54:08;;;;;;;233.77;99.70;;;;;;;-4.90;68.49;98775.47;2190484;81;21347;-77
2021/01/19 05:57:09;;;;;;;219.23;100.23;;;;;;;-4.91;68.60;98775.37;2190237;81;21281;-79
2021/01/19 06:00:11;;;;;;;229.87;101.07;;;;;;;-4.86;69.00;98774.91;2190748;81;21095;-80
2021/01/19 06:03:12;;;;;;;231.00;102.30;;;;;;;-4.76;68.91;98774.28;2190372;81;21146;-80
2021/01/19 06:06:13;;;;;;;225.60;97.77;;;;;;;-4.71;68.69;98768.73;2192506;81;21178;-79
2021/01/19 06:09:14;;;;;;;236.03;102.73;;;;;;;-4.73;68.68;98762.65;2192136;81;21126;-79
2021/01/19 06:12:15;;;;;;;239.50;103.07;;;;;;;-4.67;68.86;98760.53;2191399;81;21079;-80
2021/01/19 06:15:16;;;;;;;224.33;96.50;;;;;;;-4.60;68.93;98753.80;2191589;81;21119;-80
2021/01/19 06:18:18;;;;;;;242.87;108.23;;;;;;;-4.54;68.80;98751.67;2190961;81;21257;-80
2021/01/19 06:21:19;;;;;;;224.57;101.27;;;;;;;-4.51;68.81;98754.83;2191437;81;21428;-80
2021/01/19 06:24:20;;;;;;;232.50;101.60;;;;;;;-4.43;68.85;98748.98;2192178;81;21167;-82
2021/01/19 06:27:21;;;;;;;229.70;99.57;;;;;;;-4.40;68.83;98750.46;2192737;81;21143;-82
2021/01/19 06:30:22;;;;;;;271.40;121.87;;;;;;;-4.31;68.68;98751.12;2191421;81;21252;-82
2021/01/19 06:33:23;;;;;;;236.23;101.67;;;;;;;-4.24;68.75;98750.75;2191351;81;21115;-82
2021/01/19 06:36:24;;;;;;;234.50;103.60;;;;;;;-4.20;68.92;98756.16;2199619;80;21157;-82
2021/01/19 06:39:26;;;;;;;232.57;103.67;;;;;;;-4.11;68.79;98755.01;2207026;81;21326;-81
2021/01/19 06:42:27;;;;;;;233.57;100.57;;;;;;;-4.07;68.90;98754.44;2207068;81;21276;-81
2021/01/19 06:45:28;;;;;;;233.57;106.10;;;;;;;-3.99;68.82;98760.53;2206435;81;21288;-83
2021/01/19 06:48:29;;;;;;;233.83;101.73;;;;;;;-3.93;68.82;98757.12;2206267;81;21141;-83
2021/01/19 06:51:30;;;;;;;239.93;106.07;;;;;;;-3.85;68.94;98753.41;2206127;81;21248;-82
2021/01/19 06:54:31;;;;;;;224.37;98.87;;;;;;;-3.79;68.97;98750.37;2206496;81;21281;-82
2021/01/19 06:57:32;;;;;;;234.07;107.40;;;;;;;-3.70;68.90;98747.16;2206433;81;21111;-82
2021/01/19 07:00:33;;;;;;;221.77;100.50;;;;;;;-3.60;68.91;98743.14;2205842;81;21162;-81
2021/01/19 07:03:34;;;;;;;220.37;95.73;;;;;;;-3.44;68.70;98742.89;2205867;81;21256;-83
2021/01/19 07:06:35;;;;;;;228.70;104.80;;;;;;;-3.34;68.78;98746.52;2206377;81;21268;-82
2021/01/19 07:09:37;;;;;;;227.80;102.27;;;;;;;-3.30;68.74;98750.65;2206656;81;21122;-82
2021/01/19 07:12:38;;;;;;;226.33;99.87;;;;;;;-3.23;68.67;98748.97;2206193;81;21535;-82
2021/01/19 07:15:39;;;;;;;219.83;101.10;;;;;;;-3.16;68.57;98749.36;2205713;81;21115;-82
2021/01/19 07:18:40;;;;;;;202.07;92.93;;;;;;;-3.13;68.53;98747.00;2205988;81;21153;-82
2021/01/19 07:21:41;;;;;;;232.73;106.87;;;;;;;-3.10;68.72;98740.81;2205304;80;21260;-82
2021/01/19 07:24:42;;;;;;;223.97;101.50;;;;;;;-3.02;68.89;98753.67;2205221;81;21292;-81
2021/01/19 07:27:46;;;;;;;209.20;95.67;;;;;;;-2.96;68.68;98751.50;2205227;81;21967;-81
2021/01/19 07:30:46;;;;;;;229.70;103.63;;;;;;;-2.87;68.89;98748.24;2205532;81;21615;-81
2021/01/19 07:33:48;;;;;;;219.43;100.43;;;;;;;-2.82;68.85;98741.75;2205760;80;21256;-81
2021/01/19 07:36:49;;;;;;;224.03;104.47;;;;;;;-2.71;68.58;98743.69;2205984;80;21231;-81
2021/01/19 07:39:50;;;;;;;218.37;101.70;;;;;;;-2.59;68.38;98741.52;2207244;81;21134;-81
2021/01/19 07:42:51;;;;;;;218.63;103.20;;;;;;;-2.48;68.23;98736.18;2206690;81;21260;-81
2021/01/19 07:45:52;;;;;;;214.77;101.00;;;;;;;-2.32;68.04;98738.88;2205921;80;21374;-82
2021/01/19 07:48:53;;;;;;;237.80;108.43;;;;;;;-2.20;67.79;98743.83;2206469;81;21451;-81
2021/01/19 07:51:54;;;;;;;228.90;107.33;;;;;;;-2.16;67.59;98744.11;2207559;81;21229;-81
2021/01/19 07:54:55;;;;;;;221.63;101.50;;;;;;;-2.14;67.53;98741.64;2207450;80;21284;-81
2021/01/19 07:57:57;;;;;;;226.53;106.50;;;;;;;-2.11;67.73;98737.98;2206884;81;21285;-82
2021/01/19 08:00:58;;;;;;;236.57;108.73;;;;;;;-2.05;67.58;98736.67;2206783;80;21315;-81
2021/01/19 08:03:59;;;;;;;222.47;104.83;;;;;;;-1.97;67.83;98730.33;2206713;81;21174;-82
2021/01/19 08:07:00;;;;;;;220.37;106.10;;;;;;;-1.79;67.71;98725.41;2205936;81;21241;-81
2021/01/19 08:10:01;;;;;;;221.00;109.17;;;;;;;-1.64;67.76;98730.16;2206348;81;21578;-81
2021/01/19 08:13:03;;;;;;;214.40;105.87;;;;;;;-1.47;67.58;98727.28;2204974;81;21249;-82
2021/01/19 08:16:04;;;;;;;212.23;103.87;;;;;;;-1.37;67.55;98729.95;2206423;81;21809;-82
2021/01/19 08:19:05;;;;;;;214.17;107.03;;;;;;;-1.30;67.30;98726.94;2206826;81;21256;-81
2021/01/19 08:22:06;;;;;;;216.93;107.60;;;;;;;-1.22;67.34;98724.81;2206094;81;21267;-81
2021/01/19 08:25:11;;;;;;;221.53;106.73;;;;;;;-1.14;67.35;98719.71;2206733;80;21174;-81
2021/01/19 08:28:10;;;;;;;206.80;100.27;;;;;;;-1.07;67.21;98724.38;2207120;80;21249;-82
2021/01/19 08:31:12;;;;;;;219.90;103.40;;;;;;;-1.01;67.17;98723.43;2207246;81;21261;-80
2021/01/19 08:34:13;;;;;;;211.33;103.73;;;;;;;-1.01;67.27;98717.02;2206278;81;21570;-81
2021/01/19 08:37:16;;;;;;;214.90;107.57;;;;;;;-0.91;67.38;98716.73;2207095;80;21256;-81
2021/01/19 08:40:18;;;;;;;214.50;107.20;;;;;;;-0.84;66.98;98717.58;2206370;81;21249;-81
2021/01/19 08:43:19;;;;;;;209.47;101.57;;;;;;;-0.81;67.01;98720.30;2205911;81;21272;-82
2021/01/19 08:46:20;;;;;;;211.37;105.43;;;;;;;-0.73;66.90;98724.56;2207508;81;21281;-82
2021/01/19 08:49:21;;;;;;;192.37;98.17;;;;;;;-0.68;66.86;98718.88;2207007;81;21256;-81
2021/01/19 08:52:22;;;;;;;194.70;102.13;;;;;;;-0.61;66.89;98716.24;2206457;80;21292;-80
2021/01/19 08:55:24;;;;;;;210.57;104.37;;;;;;;-0.50;66.84;98716.41;2206032;81;21173;-82
2021/01/19 08:58:25;;;;;;;193.87;100.00;;;;;;;0.10;68.02;98720.41;2206698;81;21256;-82
2021/01/19 09:01:26;;;;;;;191.37;98.77;;;;;;;0.20;66.85;98721.34;2206684;80;21126;-81
2021/01/19 09:04:27;;;;;;;168.20;85.53;;;;;;;0.32;66.88;98722.36;2204638;80;21617;-80
2021/01/19 09:07:28;;;;;;;56.53;33.10;;;;;;;0.45;67.62;98726.02;2205408;81;21276;-81
2021/01/19 09:10:29;;;;;;;50.57;30.43;;;;;;;0.76;70.37;98727.10;2205507;81;21125;-81
2021/01/19 09:13:31;;;;;;;37.20;23.37;;;;;;;1.21;71.10;98722.00;2206075;81;21264;-82
2021/01/19 09:16:32;;;;;;;36.53;24.97;;;;;;;1.50;71.37;98722.45;2206060;81;21528;-81
2021/01/19 09:19:33;;;;;;;39.27;23.93;;;;;;;1.68;71.21;98724.55;2205790;81;21277;-82
2021/01/19 09:22:34;;;;;;;36.73;24.17;;;;;;;1.78;71.97;98719.03;2207182;81;21277;-80
2021/01/19 09:25:35;;;;;;;27.50;18.83;;;;;;;1.72;72.26;98720.42;2207272;80;21829;-82
2021/01/19 09:28:36;;;;;;;35.53;20.53;;;;;;;1.75;72.58;98706.44;2207591;81;21237;-82
2021/01/19 09:31:37;;;;;;;37.07;23.17;;;;;;;1.83;72.64;98708.95;2207973;80;21439;-81
2021/01/19 09:34:38;;;;;;;33.67;21.57;;;;;;;1.93;72.37;98713.67;2207266;81;21220;-82
2021/01/19 09:37:39;;;;;;;29.53;19.17;;;;;;;2.07;72.60;98712.58;2206896;81;21949;-82
2021/01/19 09:40:42;;;;;;;37.10;24.33;;;;;;;2.22;72.52;98702.05;2206700;81;21125;-81
2021/01/19 09:43:43;;;;;;;33.10;22.23;;;;;;;2.41;72.13;98706.27;2206342;81;21244;-82
2021/01/19 09:46:44;;;;;;;27.07;20.10;;;;;;;2.61;72.36;98696.81;2206038;81;21261;-81
2021/01/19 09:49:45;;;;;;;34.87;22.07;;;;;;;2.65;71.87;98697.41;2206509;81;21290;-80
2021/01/19 09:52:46;;;;;;;37.17;23.40;;;;;;;2.59;71.95;98692.85;2206371;81;21461;-83
2021/01/19 09:55:47;;;;;;;35.03;21.87;;;;;;;2.55;72.11;98692.25;2206508;81;21273;-80
2021/01/19 09:58:48;;;;;;;33.60;21.83;;;;;;;2.55;72.04;98686.70;2207215;80;21272;-81
2021/01/19 10:01:50;;;;;;;37.67;24.93;;;;;;;2.59;72.24;98685.53;2205378;81;21253;-82
2021/01/19 10:04:51;;;;;;;35.93;24.57;;;;;;;2.61;72.24;98686.50;2206358;81;21296;-80
2021/01/19 10:07:52;;;;;;;33.93;22.90;;;;;;;2.73;72.11;98685.70;2207217;81;21288;-82
2021/01/19 10:10:53;;;;;;;34.80;24.10;;;;;;;2.74;71.96;98679.73;2207967;80;21141;-82
2021/01/19 10:13:54;;;;;;;30.23;20.17;;;;;;;2.84;71.98;98670.25;2206589;81;21692;-81
2021/01/19 10:16:55;;;;;;;31.93;22.57;;;;;;;2.82;72.09;98668.03;2206613;81;21237;-80
2021/01/19 10:19:56;;;;;;;31.53;22.67;;;;;;;2.83;72.24;98668.50;2207196;81;21261;-81
2021/01/19 10:22:57;;;;;;;37.70;24.93;;;;;;;2.86;72.06;98665.63;2207351;81;21602;-83
2021/01/19 10:25:58;;;;;;;33.73;23.33;;;;;;;2.91;72.05;98654.20;2206005;80;21304;-81
2021/01/19 10:29:00;;;;;;;36.80;22.00;;;;;;;2.99;72.11;98660.53;2206264;80;21261;-81
2021/01/19 10:32:01;;;;;;;35.27;22.70;;;;;;;3.00;71.91;98662.30;2206047;81;21819;-80
2021/01/19 10:35:02;;;;;;;32.73;19.80;;;;;;;3.04;71.90;98660.30;2206273;81;21281;-82
2021/01/19 10:38:03;;;;;;;32.07;23.30;;;;;;;3.14;71.81;98654.67;2207493;80;21304;-82
2021/01/19 10:41:04;;;;;;;27.00;20.33;;;;;;;3.08;71.62;98650.98;2206476;81;21142;-81
2021/01/19 10:44:06;;;;;;;36.80;24.43;;;;;;;3.05;71.92;98649.58;2206997;81;21320;-81
2021/01/19 10:47:07;;;;;;;32.03;22.50;;;;;;;3.10;71.88;98642.48;2206048;81;21902;-82
2021/01/19 10:50:08;;;;;;;33.93;23.37;;;;;;;3.26;71.60;98643.94;2207172;81;21269;-81
2021/01/19 10:53:09;;;;;;;32.40;24.27;;;;;;;3.37;71.25;98640.46;2207130;81;21910;-83
2021/01/19 10:56:10;;;;;;;29.03;21.63;;;;;;;3.47;70.95;98638.30;2207045;81;21130;-82
2021/01/19 10:59:11;;;;;;;33.90;23.17;;;;;;;3.57;70.70;98639.92;2206347;80;21157;-78
2021/01/19 11:02:12;;;;;;;29.97;20.70;;;;;;;3.52;70.50;98633.31;2206411;81;21237;-81
2021/01/19 11:05:13;;;;;;;32.13;21.57;;;;;;;3.63;70.61;98629.82;2206569;81;21284;-83
2021/01/19 11:08:14;;;;;;;34.20;20.37;;;;;;;3.71;70.29;98622.81;2207265;81;21273;-81
2021/01/19 11:11:15;;;;;;;28.83;21.37;;;;;;;3.81;70.02;98624.02;2206475;81;21257;-81
2021/01/19 11:14:16;;;;;;;33.40;22.27;;;;;;;3.91;69.75;98627.79;2207265;80;21292;-81
2021/01/19 11:17:18;;;;;;;32.40;20.93;;;;;;;3.82;69.49;98624.06;2206822;81;21134;-81
2021/01/19 11:20:19;;;;;;;40.70;24.93;;;;;;;3.76;69.72;98620.39;2206254;81;21225;-80
2021/01/19 11:23:20;;;;;;;33.77;21.30;;;;;;;3.71;70.02;98619.35;2207612;80;21133;-81
2021/01/19 11:26:24;;;;;;;31.10;22.03;;;;;;;3.81;69.72;98612.39;2207294;81;21343;-82
2021/01/19 11:29:25;;;;;;;29.97;19.93;;;;;;;3.81;69.49;98611.98;2206346;81;21981;-82
2021/01/19 11:32:26;;;;;;;36.27;22.37;;;;;;;3.76;69.58;98614.81;2206577;81;21094;-83
2021/01/19 11:35:27;;;;;;;33.47;21.17;;;;;;;3.71;69.53;98606.45;2206374;80;21555;-81
2021/01/19 11:41:53;;;;;;;32.57;20.17;;;;;;;3.72;69.47;98604.33;2302846;76;22237;-81
2021/01/19 11:44:55;;;;;;;34.37;21.23;;;;;;;3.57;69.88;98605.96;2307813;77;21133;-81
2021/01/19 11:47:56;;;;;;;37.03;21.53;;;;;;;3.47;69.98;98609.04;2308002;77;21705;-83
2021/01/19 11:50:57;;;;;;;39.00;21.17;;;;;;;3.47;70.16;98606.46;2307440;77;21117;-79
2021/01/19 11:53:58;;;;;;;34.30;22.60;;;;;;;3.42;70.15;98598.93;2307969;77;21090;-81
2021/01/19 11:56:59;;;;;;;38.97;21.50;;;;;;;3.44;70.30;98600.74;2308057;77;21121;-81
2021/01/19 12:00:03;;;;;;;36.80;23.43;;;;;;;3.44;70.12;98593.00;2307097;77;21712;-83
2021/01/19 12:03:04;;;;;;;35.03;23.00;;;;;;;3.40;70.34;98587.68;2306865;77;21152;-80
2021/01/19 12:06:05;;;;;;;38.53;24.13;;;;;;;3.48;70.49;98581.13;2307552;77;21121;-83
2021/01/19 12:09:06;;;;;;;37.63;22.70;;;;;;;3.36;70.31;98580.23;2308542;77;21097;-81
2021/01/19 12:12:08;;;;;;;38.50;23.73;;;;;;;3.35;70.52;98583.64;2307960;77;21074;-82
2021/01/19 12:15:09;;;;;;;35.40;22.30;;;;;;;3.37;70.66;98578.54;2307923;77;21125;-83
2021/01/19 12:18:10;;;;;;;40.93;25.40;;;;;;;3.37;70.57;98573.38;2308856;77;21082;-82
2021/01/19 12:21:11;;;;;;;45.63;27.13;;;;;;;3.37;70.68;98574.67;2309079;77;21161;-83
2021/01/19 12:24:12;;;;;;;40.50;22.97;;;;;;;3.40;70.71;98574.37;2308685;77;21101;-80
2021/01/19 12:27:15;;;;;;;34.23;21.10;;;;;;;3.42;70.76;98568.84;2307361;77;21101;-81
2021/01/19 12:30:16;;;;;;;38.03;22.00;;;;;;;3.47;70.57;98567.75;2308124;77;21734;-80
2021/01/19 12:33:17;;;;;;;32.17;21.07;;;;;;;3.51;70.57;98560.59;2307669;77;21140;-80
2021/01/19 12:36:18;;;;;;;35.07;22.23;;;;;;;3.52;70.51;98558.47;2306917;77;21577;-80
2021/01/19 12:39:19;;;;;;;31.43;21.27;;;;;;;3.55;70.56;98550.83;2307528;77;21291;-81
2021/01/19 12:42:20;;;;;;;32.63;21.73;;;;;;;3.58;70.42;98557.80;2304260;77;21187;-81
2021/01/19 12:45:22;;;;;;;35.90;20.33;;;;;;;3.60;70.31;98545.83;2303582;77;21209;-82
2021/01/19 12:48:23;;;;;;;37.60;23.10;;;;;;;3.64;70.16;98548.98;2303784;77;21093;-82
2021/01/19 12:51:25;;;;;;;36.20;21.80;;;;;;;3.66;70.25;98541.75;2302409;77;21106;-83
2021/01/19 12:54:26;;;;;;;35.37;23.20;;;;;;;3.76;70.24;98541.23;2303373;77;21251;-83
2021/01/19 12:57:27;;;;;;;33.93;22.67;;;;;;;3.84;70.13;98545.37;2303315;77;21255;-81
2021/01/19 13:00:28;;;;;;;36.70;23.23;;;;;;;3.93;69.94;98535.75;2303204;77;21961;-81
2021/01/19 13:03:32;;;;;;;40.10;22.87;;;;;;;4.03;69.78;98531.35;2303972;77;21113;-83
2021/01/19 13:06:33;;;;;;;36.10;23.00;;;;;;;4.09;69.46;98528.55;2302102;77;21136;-81
2021/01/19 13:09:34;;;;;;;30.93;21.33;;;;;;;4.12;69.41;98531.65;2301576;77;21244;-77
2021/01/19 13:12:36;;;;;;;28.57;19.50;;;;;;;4.56;69.72;98527.90;2300967;77;21776;-77
2021/01/19 13:15:37;;;;;;;54.30;34.53;;;;;;;4.54;68.64;98537.73;2301469;77;21248;-76
2021/01/19 13:18:38;;;;;;;33.47;20.00;;;;;;;4.44;68.63;98529.69;2302442;77;21244;-77
2021/01/19 13:21:39;;;;;;;30.63;19.90;;;;;;;4.41;68.71;98533.89;2302216;77;21291;-76
2021/01/19 13:24:40;;;;;;;26.93;17.60;;;;;;;4.34;68.69;98528.95;2301802;77;21212;-78
2021/01/19 13:27:41;;;;;;;26.97;17.97;;;;;;;4.27;68.72;98529.97;2302488;77;21841;-78
2021/01/19 13:30:43;;;;;;;30.43;18.83;;;;;;;4.13;68.70;98530.82;2302483;77;21244;-77
2021/01/19 13:33:44;;;;;;;29.47;19.07;;;;;;;4.03;68.92;98529.65;2302589;77;21763;-75
2021/01/19 13:36:45;;;;;;;30.17;19.67;;;;;;;3.97;69.13;98520.83;2302894;77;21232;-77
2021/01/19 13:39:46;;;;;;;30.63;20.57;;;;;;;3.95;69.36;98521.19;2302650;77;21334;-76
2021/01/19 13:42:47;;;;;;;33.30;21.33;;;;;;;3.87;69.41;98519.65;2303188;77;21133;-76
2021/01/19 13:45:48;;;;;;;34.90;21.43;;;;;;;3.80;69.55;98517.69;2303393;77;21820;-79
2021/01/19 13:48:49;;;;;;;32.53;20.13;;;;;;;3.71;69.70;98510.52;2303932;77;21240;-77